createdAt,value
2018-05-14T00:04:28.509Z,18.6
2018-05-14T00:09:28.554Z,18.6
2018-05-14T00:14:28.607Z,18.5
2018-05-14T00:19:28.377Z,18.5
2018-05-14T00:24:31.394Z,18.5
2018-05-14T00:29:31.357Z,18.4
2018-05-14T00:34:41.741Z,18.4
2018-05-14T00:39:41.673Z,18.4
2018-05-14T00:44:41.561Z,18.4
2018-05-14T00:49:42.319Z,18.5
2018-05-14T00:54:41.675Z,18.5
2018-05-14T00:59:41.600Z,18.4
2018-05-14T01:04:41.434Z,18.5
2018-05-14T01:09:42.314Z,18.4
2018-05-14T01:14:42.049Z,18.3
2018-05-14T01:19:55.240Z,18.3
2018-05-14T01:24:55.183Z,18.3
2018-05-14T01:29:54.986Z,18.3
2018-05-14T01:34:55.163Z,18.2
2018-05-14T01:39:55.181Z,18.2
2018-05-14T01:44:55.202Z,18.1
2018-05-14T01:49:54.956Z,18.1
2018-05-14T01:54:55.763Z,18.1
2018-05-14T01:59:55.629Z,18
2018-05-14T02:05:08.571Z,18
2018-05-14T02:10:08.440Z,18
2018-05-14T02:15:08.396Z,17.9
2018-05-14T02:20:08.444Z,17.9
2018-05-14T02:25:08.507Z,17.8
2018-05-14T02:30:08.332Z,17.8
2018-05-14T02:35:08.323Z,17.8
2018-05-14T02:40:11.697Z,17.7
2018-05-14T02:45:11.429Z,17.7
2018-05-14T02:50:22.294Z,17.7
2018-05-14T02:55:22.202Z,17.6
2018-05-14T03:00:22.003Z,17.6
2018-05-14T03:05:22.031Z,17.6
2018-05-14T03:10:22.267Z,17.6
2018-05-14T03:15:22.025Z,17.6
2018-05-14T03:20:22.172Z,17.5
2018-05-14T03:25:23.702Z,17.5
2018-05-14T03:30:23.572Z,17.4
2018-05-14T03:35:36.096Z,17.4
2018-05-14T03:40:35.847Z,17.4
2018-05-14T03:45:35.963Z,17.3
2018-05-14T03:50:36.026Z,17.2
2018-05-14T03:55:36.041Z,17.2
2018-05-14T04:00:35.794Z,17.2
2018-05-14T04:05:36.010Z,17.1
2018-05-14T04:10:41.283Z,17
2018-05-14T04:15:41.191Z,17
2018-05-14T04:20:56.894Z,17
2018-05-14T04:25:56.621Z,17
2018-05-14T04:30:56.750Z,17
2018-05-14T04:35:56.788Z,17
2018-05-14T04:40:56.611Z,17
2018-05-14T04:45:56.617Z,17.1
2018-05-14T04:50:56.632Z,17.2
2018-05-14T04:55:58.160Z,17.2
2018-05-14T05:00:57.899Z,17.2
2018-05-14T05:06:10.336Z,17.3
2018-05-14T05:11:10.241Z,17.4
2018-05-14T05:16:10.078Z,17.5
2018-05-14T05:21:10.061Z,17.6
2018-05-14T05:26:10.059Z,17.8
2018-05-14T05:31:10.286Z,17.7
2018-05-14T05:36:10.093Z,17.9
2018-05-14T05:41:11.475Z,18.1
2018-05-14T05:46:10.199Z,18.2
2018-05-14T05:51:22.920Z,18.3
2018-05-14T05:56:22.646Z,18.4
2018-05-14T06:01:22.943Z,18.5
2018-05-14T06:06:22.787Z,18.7
2018-05-14T06:11:22.670Z,18.9
2018-05-14T06:16:22.846Z,18.8
2018-05-14T06:21:22.663Z,18.7
2018-05-14T06:26:24.250Z,18.6
2018-05-14T06:31:24.209Z,18.5
2018-05-14T06:36:37.045Z,18.4
2018-05-14T06:41:36.759Z,18.5
2018-05-14T06:46:37.002Z,18.5
2018-05-14T06:51:36.764Z,18.6
2018-05-14T06:56:36.966Z,18.6
2018-05-14T07:01:36.773Z,18.6
2018-05-14T07:06:36.771Z,18.7
2018-05-14T07:11:36.863Z,18.7
2018-05-14T07:16:36.769Z,18.9
2018-05-14T07:21:37.090Z,18.8
2018-05-14T07:26:36.785Z,18.9
2018-05-14T07:31:36.793Z,19
2018-05-14T07:36:39.014Z,19
2018-05-14T07:41:38.739Z,19.2
2018-05-14T07:46:49.629Z,19.3
2018-05-14T07:51:49.334Z,19.4
2018-05-14T07:56:49.350Z,19.5
2018-05-14T08:01:49.340Z,19.5
2018-05-14T08:06:49.518Z,19.6
2018-05-14T08:11:49.433Z,19.6
2018-05-14T08:16:49.357Z,19.7
2018-05-14T08:21:49.675Z,19.8
2018-05-14T08:26:49.548Z,20.1
2018-05-14T08:32:02.612Z,20
2018-05-14T08:37:02.398Z,20.2
2018-05-14T08:42:02.323Z,20.3
2018-05-14T08:47:02.504Z,20.4
2018-05-14T08:52:02.349Z,20.3
2018-05-14T08:57:02.453Z,20.6
2018-05-14T09:02:02.483Z,20.9
2018-05-14T09:07:02.544Z,21
2018-05-14T09:12:02.545Z,21.2
2018-05-14T09:17:15.327Z,21.5
2018-05-14T09:22:15.021Z,21.8
2018-05-14T09:27:14.911Z,21.8
2018-05-14T09:32:14.923Z,22
2018-05-14T09:37:14.902Z,22.1
2018-05-14T09:42:14.919Z,22.3
2018-05-14T09:47:15.080Z,22.4
2018-05-14T09:52:15.432Z,22.7
2018-05-14T09:57:15.416Z,22.9
2018-05-14T10:02:30.758Z,22.6
2018-05-14T10:07:30.717Z,22.4
2018-05-14T10:12:30.483Z,22.5
2018-05-14T10:17:30.644Z,22.8
2018-05-14T10:22:30.689Z,22.6
2018-05-14T10:27:30.683Z,22.4
2018-05-14T10:32:30.525Z,22.4
2018-05-14T10:37:30.518Z,22.2
2018-05-14T10:42:30.518Z,22.4
2018-05-14T10:47:44.308Z,22.6
2018-05-14T10:52:44.032Z,22.7
2018-05-14T10:57:44.046Z,23
2018-05-14T11:02:44.094Z,23.2
2018-05-14T11:07:44.070Z,23.3
2018-05-14T11:12:44.093Z,23.2
2018-05-14T11:17:44.046Z,22.9
2018-05-14T11:22:44.073Z,22.8
2018-05-14T11:27:44.240Z,22.9
2018-05-14T11:32:44.097Z,23
2018-05-14T11:37:44.091Z,23.5
2018-05-14T11:42:45.254Z,23.8
2018-05-14T11:47:44.672Z,23.4
2018-05-14T11:52:44.408Z,23.2
2018-05-14T11:58:03.680Z,23.2
2018-05-14T12:03:03.706Z,23
2018-05-14T12:08:05.925Z,23
2018-05-14T12:13:05.883Z,22.6
2018-05-14T12:18:18.891Z,22.8
2018-05-14T12:23:18.607Z,22.9
2018-05-14T12:28:18.610Z,22.7
2018-05-14T12:33:18.777Z,22.9
2018-05-14T12:38:18.825Z,23
2018-05-14T12:43:18.631Z,23
2018-05-14T12:48:18.640Z,23.4
2018-05-14T12:53:19.382Z,23.4
2018-05-14T12:58:19.276Z,23.6
2018-05-14T13:03:31.869Z,23.3
2018-05-14T13:08:31.626Z,23.2
2018-05-14T13:13:31.647Z,23.4
2018-05-14T13:18:31.800Z,23.6
2018-05-14T13:23:31.827Z,23.4
2018-05-14T13:28:31.824Z,23.5
2018-05-14T13:33:31.961Z,23.9
2018-05-14T13:38:34.990Z,23.2
2018-05-14T13:43:34.934Z,23.5
2018-05-14T13:48:47.770Z,23.2
2018-05-14T13:53:47.698Z,23.3
2018-05-14T13:58:47.612Z,23.2
2018-05-14T14:03:47.528Z,22.9
2018-05-14T14:08:47.509Z,22.8
2018-05-14T14:13:47.499Z,23
2018-05-14T14:18:47.527Z,22.8
2018-05-14T14:23:47.666Z,22.6
2018-05-14T14:28:47.731Z,22.2
2018-05-14T14:33:47.982Z,22.2
2018-05-14T14:38:47.795Z,22
2018-05-14T14:43:47.919Z,21.8
2018-05-14T14:48:50.075Z,21.6
2018-05-14T14:53:49.816Z,21.9
2018-05-14T14:59:03.063Z,21.9
2018-05-14T15:04:02.730Z,21.8
2018-05-14T15:09:02.759Z,21.5
2018-05-14T15:14:02.774Z,21.4
2018-05-14T15:19:02.923Z,21.2
2018-05-14T15:24:02.795Z,21.2
2018-05-14T15:29:02.791Z,21.2
2018-05-14T15:34:05.387Z,21
2018-05-14T15:39:05.028Z,20.9
2018-05-14T15:44:17.552Z,20.7
2018-05-14T15:49:17.301Z,20.7
2018-05-14T15:54:17.305Z,20.6
2018-05-14T15:59:17.297Z,20.5
2018-05-14T16:04:17.289Z,20.2
2018-05-14T16:09:19.774Z,20.2
2018-05-14T16:14:19.545Z,20
2018-05-14T16:19:19.531Z,19.9
2018-05-14T16:24:19.529Z,19.9
2018-05-14T16:29:19.534Z,19.9
2018-05-14T16:34:19.566Z,19.8
2018-05-14T16:39:20.614Z,19.7
2018-05-14T16:44:21.439Z,19.5
2018-05-14T16:49:21.430Z,19.5
2018-05-14T16:54:32.796Z,19.4
2018-05-14T16:59:32.599Z,19.4
2018-05-14T17:04:32.504Z,19.3
2018-05-14T17:09:32.592Z,19.1
2018-05-14T17:14:32.530Z,19.1
2018-05-14T17:19:32.552Z,19
2018-05-14T17:24:32.544Z,18.9
2018-05-14T17:29:34.040Z,18.8
2018-05-14T17:34:33.758Z,18.8
2018-05-14T17:39:46.662Z,18.7
2018-05-14T17:44:46.421Z,18.5
2018-05-14T17:49:47.065Z,18.5
2018-05-14T17:54:46.419Z,18.4
2018-05-14T17:59:46.388Z,18.3
2018-05-14T18:04:46.417Z,18.2
2018-05-14T18:09:46.608Z,18.1
2018-05-14T18:14:46.964Z,18
2018-05-14T18:19:46.760Z,17.9
2018-05-14T18:24:59.899Z,17.9
2018-05-14T18:29:59.551Z,17.8
2018-05-14T18:34:59.507Z,17.7
2018-05-14T18:39:59.564Z,17.7
2018-05-14T18:44:59.541Z,17.6
2018-05-14T18:49:59.603Z,17.6
2018-05-14T18:54:59.522Z,17.4
2018-05-14T19:00:00.434Z,17.4
2018-05-14T19:05:00.139Z,17.3
2018-05-14T19:10:16.149Z,17.2
2018-05-14T19:15:15.841Z,17.2
2018-05-14T19:20:16.386Z,17.1
2018-05-14T19:25:15.946Z,17
2018-05-14T19:30:15.877Z,17.1
2018-05-14T19:35:15.856Z,16.9
2018-05-14T19:40:15.866Z,16.8
2018-05-14T19:45:18.605Z,16.8
2018-05-14T19:50:18.178Z,16.7
2018-05-14T19:55:30.931Z,16.6
2018-05-14T20:00:30.563Z,16.6
2018-05-14T20:05:30.608Z,16.6
2018-05-14T20:10:30.612Z,16.5
2018-05-14T20:15:30.928Z,16.5
2018-05-14T20:20:30.642Z,16.4
2018-05-14T20:25:31.456Z,16.4
2018-05-14T20:30:33.813Z,16.4
2018-05-14T20:35:33.469Z,16.3
2018-05-14T20:40:48.343Z,16.3
2018-05-14T20:45:48.107Z,16.3
2018-05-14T20:50:48.183Z,16.2
2018-05-14T20:55:48.112Z,16.2
2018-05-14T21:00:48.052Z,16.2
2018-05-14T21:05:48.134Z,16.2
2018-05-14T21:10:48.128Z,16.1
2018-05-14T21:15:48.615Z,16.1
2018-05-14T21:20:48.599Z,16
2018-05-14T21:26:01.062Z,16
2018-05-14T21:31:00.814Z,15.9
2018-05-14T21:36:01.003Z,15.9
2018-05-14T21:41:00.810Z,15.9
2018-05-14T21:46:00.795Z,15.9
2018-05-14T21:51:00.795Z,15.9
2018-05-14T21:56:00.811Z,15.8
2018-05-14T22:01:00.947Z,15.8
2018-05-14T22:06:00.951Z,15.7
2018-05-14T22:11:13.616Z,15.8
2018-05-14T22:16:13.345Z,15.7
2018-05-14T22:21:13.343Z,15.7
2018-05-14T22:26:13.503Z,15.7
2018-05-14T22:31:13.541Z,15.6
2018-05-14T22:36:13.359Z,15.6
2018-05-14T22:41:13.364Z,15.6
2018-05-14T22:46:14.318Z,15.6
2018-05-14T22:51:14.205Z,15.6
2018-05-14T22:56:26.897Z,15.6
2018-05-14T23:01:26.616Z,15.6
2018-05-14T23:06:26.639Z,15.5
2018-05-14T23:11:26.820Z,15.5
2018-05-14T23:16:26.766Z,15.4
2018-05-14T23:21:26.620Z,15.4
2018-05-14T23:26:26.820Z,15.4
2018-05-14T23:31:28.219Z,15.4
2018-05-14T23:36:28.119Z,15.4
2018-05-14T23:41:40.670Z,15.2
2018-05-14T23:46:40.397Z,15.1
2018-05-14T23:51:40.341Z,15
2018-05-14T23:56:40.640Z,14.9
